sensor_id;sensor_type;location;lat;lon;timestamp;temperature;humidity
21167;DHT22;10741;52.272;9.580;2023-04-06T00:02:08;0.20;99.90
21167;DHT22;10741;52.272;9.580;2023-04-06T00:04:33;0.20;99.90
21167;DHT22;10741;52.272;9.580;2023-04-06T00:06:59;0.10;99.90
21167;DHT22;10741;52.272;9.580;2023-04-06T00:09:25;0.10;99.90
21167;DHT22;10741;52.272;9.580;2023-04-06T00:11:51;0.10;99.90
21167;DHT22;10741;52.272;9.580;2023-04-06T00:14:17;0.10;99.90
21167;DHT22;10741;52.272;9.580;2023-04-06T00:16:43;0.10;99.90
21167;DHT22;10741;52.272;9.580;2023-04-06T00:19:08;0.00;99.90
21167;DHT22;10741;52.272;9.580;2023-04-06T00:21:34;0.00;99.90
21167;DHT22;10741;52.272;9.580;2023-04-06T00:24:00;0.00;99.90
21167;DHT22;10741;52.272;9.580;2023-04-06T00:26:26;0.00;99.90
21167;DHT22;10741;52.272;9.580;2023-04-06T00:28:51;-0.10;99.90
21167;DHT22;10741;52.272;9.580;2023-04-06T00:31:18;-0.10;99.90
21167;DHT22;10741;52.272;9.580;2023-04-06T00:33:43;-0.10;99.90
21167;DHT22;10741;52.272;9.580;2023-04-06T00:36:09;-0.10;99.90
21167;DHT22;10741;52.272;9.580;2023-04-06T00:38:35;-0.10;99.90
21167;DHT22;10741;52.272;9.580;2023-04-06T00:41:02;-0.10;99.90
21167;DHT22;10741;52.272;9.580;2023-04-06T00:43:28;-0.10;99.90
21167;DHT22;10741;52.272;9.580;2023-04-06T00:45:54;-0.10;99.90
21167;DHT22;10741;52.272;9.580;2023-04-06T00:48:19;-0.10;99.90
21167;DHT22;10741;52.272;9.580;2023-04-06T00:50:45;-0.10;99.90
21167;DHT22;10741;52.272;9.580;2023-04-06T00:53:11;-0.10;99.90
21167;DHT22;10741;52.272;9.580;2023-04-06T00:55:38;0.00;99.90
21167;DHT22;10741;52.272;9.580;2023-04-06T00:58:04;0.00;99.90
21167;DHT22;10741;52.272;9.580;2023-04-06T01:00:30;-0.10;99.90
21167;DHT22;10741;52.272;9.580;2023-04-06T01:02:56;-0.10;99.90
21167;DHT22;10741;52.272;9.580;2023-04-06T01:05:21;-0.10;99.90
21167;DHT22;10741;52.272;9.580;2023-04-06T01:07:47;-0.10;99.90
21167;DHT22;10741;52.272;9.580;2023-04-06T01:10:26;-0.10;99.90
21167;DHT22;10741;52.272;9.580;2023-04-06T01:12:52;-0.10;99.90
21167;DHT22;10741;52.272;9.580;2023-04-06T01:15:17;-0.10;99.90
21167;DHT22;10741;52.272;9.580;2023-04-06T01:17:43;-0.10;99.90
21167;DHT22;10741;52.272;9.580;2023-04-06T01:20:09;-0.10;99.90
21167;DHT22;10741;52.272;9.580;2023-04-06T01:22:35;-0.10;99.90
21167;DHT22;10741;52.272;9.580;2023-04-06T01:25:01;-0.10;99.90
21167;DHT22;10741;52.272;9.580;2023-04-06T01:27:26;-0.10;99.90
21167;DHT22;10741;52.272;9.580;2023-04-06T01:29:53;-0.20;99.90
21167;DHT22;10741;52.272;9.580;2023-04-06T01:32:19;-0.20;99.90
21167;DHT22;10741;52.272;9.580;2023-04-06T01:34:45;-0.20;99.90
21167;DHT22;10741;52.272;9.580;2023-04-06T01:37:11;-0.20;99.90
21167;DHT22;10741;52.272;9.580;2023-04-06T01:39:36;-0.10;99.90
21167;DHT22;10741;52.272;9.580;2023-04-06T01:42:02;-0.20;99.90
21167;DHT22;10741;52.272;9.580;2023-04-06T01:44:28;-0.20;99.90
21167;DHT22;10741;52.272;9.580;2023-04-06T01:46:56;-0.20;99.90
21167;DHT22;10741;52.272;9.580;2023-04-06T01:49:22;-0.30;99.90
21167;DHT22;10741;52.272;9.580;2023-04-06T01:51:48;-0.30;99.90
21167;DHT22;10741;52.272;9.580;2023-04-06T01:54:13;-0.30;99.90
21167;DHT22;10741;52.272;9.580;2023-04-06T01:56:39;-0.30;99.90
21167;DHT22;10741;52.272;9.580;2023-04-06T01:59:06;-0.60;99.90
21167;DHT22;10741;52.272;9.580;2023-04-06T02:01:32;-0.30;99.90
21167;DHT22;10741;52.272;9.580;2023-04-06T02:03:58;-0.30;99.90
21167;DHT22;10741;52.272;9.580;2023-04-06T02:06:23;-0.30;99.90
21167;DHT22;10741;52.272;9.580;2023-04-06T02:08:50;-0.30;99.90
21167;DHT22;10741;52.272;9.580;2023-04-06T02:11:15;-0.40;99.90
21167;DHT22;10741;52.272;9.580;2023-04-06T02:13:41;-0.30;99.90
21167;DHT22;10741;52.272;9.580;2023-04-06T02:16:07;-0.40;99.90
21167;DHT22;10741;52.272;9.580;2023-04-06T02:18:33;-0.40;99.90
21167;DHT22;10741;52.272;9.580;2023-04-06T02:20:59;-0.40;99.90
21167;DHT22;10741;52.272;9.580;2023-04-06T02:23:24;-0.40;99.90
21167;DHT22;10741;52.272;9.580;2023-04-06T02:25:50;-0.50;99.90
21167;DHT22;10741;52.272;9.580;2023-04-06T02:28:16;-0.50;99.90
21167;DHT22;10741;52.272;9.580;2023-04-06T02:30:42;-0.50;99.90
21167;DHT22;10741;52.272;9.580;2023-04-06T02:33:07;-0.50;99.90
21167;DHT22;10741;52.272;9.580;2023-04-06T02:35:33;-0.50;99.90
21167;DHT22;10741;52.272;9.580;2023-04-06T02:37:59;-0.50;99.90
21167;DHT22;10741;52.272;9.580;2023-04-06T02:40:25;-0.50;99.90
21167;DHT22;10741;52.272;9.580;2023-04-06T02:42:51;-0.50;99.90
21167;DHT22;10741;52.272;9.580;2023-04-06T02:45:17;-0.50;99.90
21167;DHT22;10741;52.272;9.580;2023-04-06T02:47:42;-0.50;99.90
21167;DHT22;10741;52.272;9.580;2023-04-06T02:50:08;-0.50;99.90
21167;DHT22;10741;52.272;9.580;2023-04-06T02:52:35;-0.50;99.90
21167;DHT22;10741;52.272;9.580;2023-04-06T02:55:00;-0.60;99.90
21167;DHT22;10741;52.272;9.580;2023-04-06T02:57:26;-0.60;99.90
21167;DHT22;10741;52.272;9.580;2023-04-06T02:59:52;0.10;99.90
21167;DHT22;10741;52.272;9.580;2023-04-06T03:02:18;-0.50;99.90
21167;DHT22;10741;52.272;9.580;2023-04-06T03:04:44;-0.40;99.90
21167;DHT22;10741;52.272;9.580;2023-04-06T03:07:10;-0.40;99.90
21167;DHT22;10741;52.272;9.580;2023-04-06T03:09:39;-0.40;99.90
21167;DHT22;10741;52.272;9.580;2023-04-06T03:12:05;-0.30;99.90
21167;DHT22;10741;52.272;9.580;2023-04-06T03:14:31;-0.30;99.90
21167;DHT22;10741;52.272;9.580;2023-04-06T03:16:56;-0.40;99.90
21167;DHT22;10741;52.272;9.580;2023-04-06T03:19:22;-0.40;99.90
21167;DHT22;10741;52.272;9.580;2023-04-06T03:21:48;-0.40;99.90
21167;DHT22;10741;52.272;9.580;2023-04-06T03:24:14;-0.50;99.90
21167;DHT22;10741;52.272;9.580;2023-04-06T03:26:39;-0.50;99.90
21167;DHT22;10741;52.272;9.580;2023-04-06T03:29:05;-0.60;99.90
21167;DHT22;10741;52.272;9.580;2023-04-06T03:31:31;-0.60;99.90
21167;DHT22;10741;52.272;9.580;2023-04-06T03:33:57;-0.70;99.90
21167;DHT22;10741;52.272;9.580;2023-04-06T03:36:22;-0.70;99.90
21167;DHT22;10741;52.272;9.580;2023-04-06T03:38:48;-0.80;99.90
21167;DHT22;10741;52.272;9.580;2023-04-06T03:41:14;-0.80;99.90
21167;DHT22;10741;52.272;9.580;2023-04-06T03:43:40;-0.80;99.90
21167;DHT22;10741;52.272;9.580;2023-04-06T03:46:06;-0.80;99.90
21167;DHT22;10741;52.272;9.580;2023-04-06T03:48:31;-0.80;99.90
21167;DHT22;10741;52.272;9.580;2023-04-06T03:50:57;-0.70;99.90
21167;DHT22;10741;52.272;9.580;2023-04-06T03:53:23;-0.60;99.90
21167;DHT22;10741;52.272;9.580;2023-04-06T03:55:49;-0.60;99.90
21167;DHT22;10741;52.272;9.580;2023-04-06T03:58:14;-0.50;99.90
21167;DHT22;10741;52.272;9.580;2023-04-06T04:00:40;-0.50;99.90
21167;DHT22;10741;52.272;9.580;2023-04-06T04:03:06;-0.50;99.90
21167;DHT22;10741;52.272;9.580;2023-04-06T04:05:32;-0.50;99.90
21167;DHT22;10741;52.272;9.580;2023-04-06T04:07:57;-0.50;99.90
21167;DHT22;10741;52.272;9.580;2023-04-06T04:10:23;-0.60;99.90
21167;DHT22;10741;52.272;9.580;2023-04-06T04:12:49;-0.70;99.90
21167;DHT22;10741;52.272;9.580;2023-04-06T04:15:15;-0.70;99.90
21167;DHT22;10741;52.272;9.580;2023-04-06T04:17:41;-0.70;99.90
21167;DHT22;10741;52.272;9.580;2023-04-06T04:20:07;-0.70;99.90
21167;DHT22;10741;52.272;9.580;2023-04-06T04:22:33;-0.80;99.90
21167;DHT22;10741;52.272;9.580;2023-04-06T04:24:59;-0.70;99.90
21167;DHT22;10741;52.272;9.580;2023-04-06T04:27:25;-0.70;99.90
21167;DHT22;10741;52.272;9.580;2023-04-06T04:29:50;-0.60;99.90
21167;DHT22;10741;52.272;9.580;2023-04-06T04:32:16;-0.60;99.90
21167;DHT22;10741;52.272;9.580;2023-04-06T04:34:42;-0.50;99.90
21167;DHT22;10741;52.272;9.580;2023-04-06T04:37:08;-0.40;99.90
21167;DHT22;10741;52.272;9.580;2023-04-06T04:39:34;-0.30;99.90
21167;DHT22;10741;52.272;9.580;2023-04-06T04:42:00;-0.20;99.90
21167;DHT22;10741;52.272;9.580;2023-04-06T04:44:26;-0.10;99.90
21167;DHT22;10741;52.272;9.580;2023-04-06T04:46:52;-0.10;99.90
21167;DHT22;10741;52.272;9.580;2023-04-06T04:49:17;0.00;99.90
21167;DHT22;10741;52.272;9.580;2023-04-06T04:51:43;0.00;99.90
21167;DHT22;10741;52.272;9.580;2023-04-06T04:54:09;0.10;99.90
21167;DHT22;10741;52.272;9.580;2023-04-06T04:56:35;0.10;99.90
21167;DHT22;10741;52.272;9.580;2023-04-06T04:59:01;0.20;99.90
21167;DHT22;10741;52.272;9.580;2023-04-06T05:01:27;0.20;99.90
21167;DHT22;10741;52.272;9.580;2023-04-06T05:03:53;0.20;99.90
21167;DHT22;10741;52.272;9.580;2023-04-06T05:06:19;0.20;99.90
21167;DHT22;10741;52.272;9.580;2023-04-06T05:08:45;0.20;99.90
21167;DHT22;10741;52.272;9.580;2023-04-06T05:11:11;0.30;99.90
21167;DHT22;10741;52.272;9.580;2023-04-06T05:13:37;0.40;99.90
21167;DHT22;10741;52.272;9.580;2023-04-06T05:16:03;0.50;99.90
21167;DHT22;10741;52.272;9.580;2023-04-06T05:18:29;0.60;99.90
21167;DHT22;10741;52.272;9.580;2023-04-06T05:20:55;0.70;99.90
21167;DHT22;10741;52.272;9.580;2023-04-06T05:23:21;0.80;99.90
21167;DHT22;10741;52.272;9.580;2023-04-06T05:25:46;0.80;99.90
21167;DHT22;10741;52.272;9.580;2023-04-06T05:28:12;0.90;99.90
21167;DHT22;10741;52.272;9.580;2023-04-06T05:30:39;1.00;99.90
21167;DHT22;10741;52.272;9.580;2023-04-06T05:33:05;1.20;99.90
21167;DHT22;10741;52.272;9.580;2023-04-06T05:35:31;1.30;99.90
21167;DHT22;10741;52.272;9.580;2023-04-06T05:37:57;1.40;99.90
21167;DHT22;10741;52.272;9.580;2023-04-06T05:40:23;1.50;99.90
21167;DHT22;10741;52.272;9.580;2023-04-06T05:42:48;1.60;99.90
21167;DHT22;10741;52.272;9.580;2023-04-06T05:45:15;1.70;99.90
21167;DHT22;10741;52.272;9.580;2023-04-06T05:47:43;1.80;99.90
21167;DHT22;10741;52.272;9.580;2023-04-06T05:50:13;1.90;99.90
21167;DHT22;10741;52.272;9.580;2023-04-06T05:52:39;2.00;99.90
21167;DHT22;10741;52.272;9.580;2023-04-06T05:55:09;2.00;99.90
21167;DHT22;10741;52.272;9.580;2023-04-06T05:57:35;2.20;99.90
21167;DHT22;10741;52.272;9.580;2023-04-06T06:00:01;2.30;99.90
21167;DHT22;10741;52.272;9.580;2023-04-06T06:02:27;2.40;99.90
21167;DHT22;10741;52.272;9.580;2023-04-06T06:04:55;2.50;99.90
21167;DHT22;10741;52.272;9.580;2023-04-06T06:07:21;2.70;99.90
21167;DHT22;10741;52.272;9.580;2023-04-06T06:09:47;2.80;99.90
21167;DHT22;10741;52.272;9.580;2023-04-06T06:12:13;2.90;99.90
21167;DHT22;10741;52.272;9.580;2023-04-06T06:14:38;3.00;99.90
21167;DHT22;10741;52.272;9.580;2023-04-06T06:17:04;3.10;99.90
21167;DHT22;10741;52.272;9.580;2023-04-06T06:19:30;3.20;99.90
21167;DHT22;10741;52.272;9.580;2023-04-06T06:21:56;3.40;99.90
21167;DHT22;10741;52.272;9.580;2023-04-06T06:24:21;3.50;99.90
21167;DHT22;10741;52.272;9.580;2023-04-06T06:26:47;3.70;99.90
21167;DHT22;10741;52.272;9.580;2023-04-06T06:29:14;3.80;99.90
21167;DHT22;10741;52.272;9.580;2023-04-06T06:31:40;4.00;99.90
21167;DHT22;10741;52.272;9.580;2023-04-06T06:34:06;4.10;99.90
21167;DHT22;10741;52.272;9.580;2023-04-06T06:36:32;4.20;99.90
21167;DHT22;10741;52.272;9.580;2023-04-06T06:38:58;4.30;99.90
21167;DHT22;10741;52.272;9.580;2023-04-06T06:41:25;4.50;99.90
21167;DHT22;10741;52.272;9.580;2023-04-06T06:43:51;4.60;99.90
21167;DHT22;10741;52.272;9.580;2023-04-06T06:46:17;4.80;99.90
21167;DHT22;10741;52.272;9.580;2023-04-06T06:48:43;4.80;99.90
21167;DHT22;10741;52.272;9.580;2023-04-06T06:51:09;4.90;99.90
21167;DHT22;10741;52.272;9.580;2023-04-06T06:53:35;5.10;99.90
21167;DHT22;10741;52.272;9.580;2023-04-06T06:56:01;5.20;99.90
21167;DHT22;10741;52.272;9.580;2023-04-06T06:58:27;5.30;99.90
21167;DHT22;10741;52.272;9.580;2023-04-06T07:00:56;5.50;99.90
21167;DHT22;10741;52.272;9.580;2023-04-06T07:03:22;5.60;99.90
21167;DHT22;10741;52.272;9.580;2023-04-06T07:05:49;5.70;99.90
21167;DHT22;10741;52.272;9.580;2023-04-06T07:08:22;5.80;99.90
21167;DHT22;10741;52.272;9.580;2023-04-06T07:10:49;6.00;99.90
21167;DHT22;10741;52.272;9.580;2023-04-06T07:13:16;6.10;99.90
21167;DHT22;10741;52.272;9.580;2023-04-06T07:15:47;6.20;99.90
21167;DHT22;10741;52.272;9.580;2023-04-06T07:18:13;6.30;99.90
21167;DHT22;10741;52.272;9.580;2023-04-06T07:20:39;6.40;99.90
21167;DHT22;10741;52.272;9.580;2023-04-06T07:23:06;6.50;99.90
21167;DHT22;10741;52.272;9.580;2023-04-06T07:25:32;6.60;99.90
21167;DHT22;10741;52.272;9.580;2023-04-06T07:27:58;6.60;99.90
21167;DHT22;10741;52.272;9.580;2023-04-06T07:30:24;6.80;99.90
21167;DHT22;10741;52.272;9.580;2023-04-06T07:32:52;7.20;99.90
21167;DHT22;10741;52.272;9.580;2023-04-06T07:35:17;7.70;99.90
21167;DHT22;10741;52.272;9.580;2023-04-06T07:37:43;8.30;99.90
21167;DHT22;10741;52.272;9.580;2023-04-06T07:40:09;8.80;99.90
21167;DHT22;10741;52.272;9.580;2023-04-06T07:42:35;9.40;99.90
21167;DHT22;10741;52.272;9.580;2023-04-06T07:45:01;10.10;98.40
21167;DHT22;10741;52.272;9.580;2023-04-06T07:47:27;10.60;95.40
21167;DHT22;10741;52.272;9.580;2023-04-06T07:49:54;10.80;96.20
21167;DHT22;10741;52.272;9.580;2023-04-06T07:52:21;11.20;92.30
21167;DHT22;10741;52.272;9.580;2023-04-06T07:54:47;11.20;91.70
21167;DHT22;10741;52.272;9.580;2023-04-06T07:57:14;11.40;91.00
21167;DHT22;10741;52.272;9.580;2023-04-06T07:59:41;11.60;89.30
21167;DHT22;10741;52.272;9.580;2023-04-06T08:02:07;11.70;87.40
21167;DHT22;10741;52.272;9.580;2023-04-06T08:04:33;11.90;88.20
21167;DHT22;10741;52.272;9.580;2023-04-06T08:06:58;12.10;87.10
21167;DHT22;10741;52.272;9.580;2023-04-06T08:09:24;12.30;86.00
21167;DHT22;10741;52.272;9.580;2023-04-06T08:11:50;12.30;84.70
21167;DHT22;10741;52.272;9.580;2023-04-06T08:14:16;12.60;85.60
21167;DHT22;10741;52.272;9.580;2023-04-06T08:16:42;12.50;85.00
21167;DHT22;10741;52.272;9.580;2023-04-06T08:19:07;12.50;84.60
21167;DHT22;10741;52.272;9.580;2023-04-06T08:21:35;12.80;85.00
21167;DHT22;10741;52.272;9.580;2023-04-06T08:24:01;13.10;82.50
21167;DHT22;10741;52.272;9.580;2023-04-06T08:26:27;13.30;85.90
21167;DHT22;10741;52.272;9.580;2023-04-06T08:28:54;13.10;82.00
21167;DHT22;10741;52.272;9.580;2023-04-06T08:31:20;13.20;83.10
21167;DHT22;10741;52.272;9.580;2023-04-06T08:33:45;13.30;81.00
21167;DHT22;10741;52.272;9.580;2023-04-06T08:36:13;13.10;81.20
21167;DHT22;10741;52.272;9.580;2023-04-06T08:38:40;13.50;82.30
21167;DHT22;10741;52.272;9.580;2023-04-06T08:41:10;13.50;85.50
21167;DHT22;10741;52.272;9.580;2023-04-06T08:46:08;14.10;80.30
21167;DHT22;10741;52.272;9.580;2023-04-06T08:48:35;14.00;79.60
21167;DHT22;10741;52.272;9.580;2023-04-06T08:51:02;14.30;81.20
21167;DHT22;10741;52.272;9.580;2023-04-06T08:53:28;14.60;76.60
21167;DHT22;10741;52.272;9.580;2023-04-06T08:55:55;14.90;75.90
21167;DHT22;10741;52.272;9.580;2023-04-06T08:58:23;15.10;76.00
21167;DHT22;10741;52.272;9.580;2023-04-06T09:00:49;15.30;76.50
21167;DHT22;10741;52.272;9.580;2023-04-06T09:03:17;15.90;74.40
21167;DHT22;10741;52.272;9.580;2023-04-06T09:05:44;15.60;76.20
21167;DHT22;10741;52.272;9.580;2023-04-06T09:08:10;15.50;77.00
21167;DHT22;10741;52.272;9.580;2023-04-06T09:10:40;15.30;74.80
21167;DHT22;10741;52.272;9.580;2023-04-06T09:13:07;15.50;74.80
21167;DHT22;10741;52.272;9.580;2023-04-06T09:15:34;15.40;75.90
21167;DHT22;10741;52.272;9.580;2023-04-06T09:18:00;15.60;76.20
21167;DHT22;10741;52.272;9.580;2023-04-06T09:20:27;15.70;74.50
21167;DHT22;10741;52.272;9.580;2023-04-06T09:22:54;15.70;71.80
21167;DHT22;10741;52.272;9.580;2023-04-06T09:25:24;15.60;74.40
21167;DHT22;10741;52.272;9.580;2023-04-06T09:28:03;16.20;74.00
21167;DHT22;10741;52.272;9.580;2023-04-06T09:30:30;16.30;74.50
21167;DHT22;10741;52.272;9.580;2023-04-06T09:32:56;16.10;72.40
21167;DHT22;10741;52.272;9.580;2023-04-06T09:35:23;15.80;69.00
21167;DHT22;10741;52.272;9.580;2023-04-06T09:37:50;15.60;71.30
21167;DHT22;10741;52.272;9.580;2023-04-06T09:40:17;15.40;74.20
21167;DHT22;10741;52.272;9.580;2023-04-06T09:42:48;15.40;74.50
21167;DHT22;10741;52.272;9.580;2023-04-06T09:45:15;15.60;76.30
21167;DHT22;10741;52.272;9.580;2023-04-06T09:47:45;15.60;74.70
21167;DHT22;10741;52.272;9.580;2023-04-06T09:50:14;15.50;72.90
21167;DHT22;10741;52.272;9.580;2023-04-06T09:52:47;15.40;72.60
21167;DHT22;10741;52.272;9.580;2023-04-06T09:55:45;15.40;76.90
21167;DHT22;10741;52.272;9.580;2023-04-06T09:58:16;15.50;77.30
21167;DHT22;10741;52.272;9.580;2023-04-06T10:01:12;15.70;78.70
21167;DHT22;10741;52.272;9.580;2023-04-06T10:06:10;15.40;77.40
21167;DHT22;10741;52.272;9.580;2023-04-06T10:08:38;14.90;79.50
21167;DHT22;10741;52.272;9.580;2023-04-06T10:11:06;14.60;79.90
21167;DHT22;10741;52.272;9.580;2023-04-06T10:13:33;14.40;78.50
21167;DHT22;10741;52.272;9.580;2023-04-06T10:16:00;14.30;76.90
21167;DHT22;10741;52.272;9.580;2023-04-06T10:18:29;14.70;73.60
21167;DHT22;10741;52.272;9.580;2023-04-06T10:21:16;14.90;68.70
21167;DHT22;10741;52.272;9.580;2023-04-06T10:23:49;14.90;73.20
21167;DHT22;10741;52.272;9.580;2023-04-06T10:26:20;15.10;76.60
21167;DHT22;10741;52.272;9.580;2023-04-06T10:28:47;15.40;72.70
21167;DHT22;10741;52.272;9.580;2023-04-06T10:31:14;15.20;73.60
21167;DHT22;10741;52.272;9.580;2023-04-06T10:33:40;15.00;71.80
21167;DHT22;10741;52.272;9.580;2023-04-06T10:36:22;14.80;72.80
21167;DHT22;10741;52.272;9.580;2023-04-06T10:39:05;14.60;71.70
21167;DHT22;10741;52.272;9.580;2023-04-06T10:41:42;14.20;72.00
21167;DHT22;10741;52.272;9.580;2023-04-06T10:44:23;14.30;71.70
21167;DHT22;10741;52.272;9.580;2023-04-06T10:46:54;14.70;70.30
21167;DHT22;10741;52.272;9.580;2023-04-06T10:49:20;14.90;71.00
21167;DHT22;10741;52.272;9.580;2023-04-06T10:51:51;14.70;68.10
21167;DHT22;10741;52.272;9.580;2023-04-06T10:54:20;14.50;71.70
21167;DHT22;10741;52.272;9.580;2023-04-06T10:56:46;14.60;69.60
21167;DHT22;10741;52.272;9.580;2023-04-06T10:59:12;15.30;67.40
21167;DHT22;10741;52.272;9.580;2023-04-06T11:01:37;15.60;70.00
21167;DHT22;10741;52.272;9.580;2023-04-06T11:04:03;15.70;75.00
21167;DHT22;10741;52.272;9.580;2023-04-06T11:06:30;15.40;72.20
21167;DHT22;10741;52.272;9.580;2023-04-06T11:08:59;14.90;71.20
21167;DHT22;10741;52.272;9.580;2023-04-06T11:11:26;14.90;66.30
21167;DHT22;10741;52.272;9.580;2023-04-06T11:13:58;15.10;67.70
21167;DHT22;10741;52.272;9.580;2023-04-06T11:16:31;15.30;69.00
21167;DHT22;10741;52.272;9.580;2023-04-06T11:21:46;16.10;65.70
21167;DHT22;10741;52.272;9.580;2023-04-06T11:24:23;16.70;68.10
21167;DHT22;10741;52.272;9.580;2023-04-06T11:26:57;17.10;65.90
21167;DHT22;10741;52.272;9.580;2023-04-06T11:29:28;17.20;64.40
21167;DHT22;10741;52.272;9.580;2023-04-06T11:31:58;17.40;65.20
21167;DHT22;10741;52.272;9.580;2023-04-06T11:34:25;17.90;63.90
21167;DHT22;10741;52.272;9.580;2023-04-06T11:36:58;17.70;60.70
21167;DHT22;10741;52.272;9.580;2023-04-06T11:39:26;18.60;60.90
21167;DHT22;10741;52.272;9.580;2023-04-06T11:42:10;19.00;60.90
21167;DHT22;10741;52.272;9.580;2023-04-06T11:44:38;18.40;61.50
21167;DHT22;10741;52.272;9.580;2023-04-06T11:47:06;18.40;60.60
21167;DHT22;10741;52.272;9.580;2023-04-06T11:49:36;18.90;60.00
21167;DHT22;10741;52.272;9.580;2023-04-06T11:52:02;19.20;58.90
21167;DHT22;10741;52.272;9.580;2023-04-06T11:54:36;18.90;59.50
21167;DHT22;10741;52.272;9.580;2023-04-06T11:57:04;19.20;59.70
21167;DHT22;10741;52.272;9.580;2023-04-06T11:59:31;19.60;59.60
21167;DHT22;10741;52.272;9.580;2023-04-06T12:01:57;19.10;57.30
21167;DHT22;10741;52.272;9.580;2023-04-06T12:04:23;19.60;57.80
21167;DHT22;10741;52.272;9.580;2023-04-06T12:06:49;20.30;57.20
21167;DHT22;10741;52.272;9.580;2023-04-06T12:09:16;20.00;57.00
21167;DHT22;10741;52.272;9.580;2023-04-06T12:11:46;19.70;59.70
21167;DHT22;10741;52.272;9.580;2023-04-06T12:14:12;19.70;58.30
21167;DHT22;10741;52.272;9.580;2023-04-06T12:16:38;19.60;58.20
21167;DHT22;10741;52.272;9.580;2023-04-06T12:19:05;19.30;59.30
21167;DHT22;10741;52.272;9.580;2023-04-06T12:21:31;19.10;57.20
21167;DHT22;10741;52.272;9.580;2023-04-06T12:24:00;19.00;59.60
21167;DHT22;10741;52.272;9.580;2023-04-06T12:26:27;19.30;59.30
21167;DHT22;10741;52.272;9.580;2023-04-06T12:28:53;20.00;57.00
21167;DHT22;10741;52.272;9.580;2023-04-06T12:31:20;19.80;58.50
21167;DHT22;10741;52.272;9.580;2023-04-06T12:33:47;19.40;58.40
21167;DHT22;10741;52.272;9.580;2023-04-06T12:36:17;19.90;57.90
21167;DHT22;10741;52.272;9.580;2023-04-06T12:38:50;20.10;58.40
21167;DHT22;10741;52.272;9.580;2023-04-06T12:41:17;20.30;57.20
21167;DHT22;10741;52.272;9.580;2023-04-06T12:43:44;20.60;55.80
21167;DHT22;10741;52.272;9.580;2023-04-06T12:46:11;20.60;55.40
21167;DHT22;10741;52.272;9.580;2023-04-06T12:48:37;20.70;56.50
21167;DHT22;10741;52.272;9.580;2023-04-06T12:51:06;20.30;62.40
21167;DHT22;10741;52.272;9.580;2023-04-06T12:53:33;20.60;59.80
21167;DHT22;10741;52.272;9.580;2023-04-06T12:56:00;20.20;58.40
21167;DHT22;10741;52.272;9.580;2023-04-06T12:58:27;20.00;59.80
21167;DHT22;10741;52.272;9.580;2023-04-06T13:00:54;19.70;60.50
21167;DHT22;10741;52.272;9.580;2023-04-06T13:03:21;19.70;58.30
21167;DHT22;10741;52.272;9.580;2023-04-06T13:05:51;19.30;59.00
21167;DHT22;10741;52.272;9.580;2023-04-06T13:08:19;19.60;58.90
21167;DHT22;10741;52.272;9.580;2023-04-06T13:10:49;19.60;58.90
21167;DHT22;10741;52.272;9.580;2023-04-06T13:13:17;19.60;60.60
21167;DHT22;10741;52.272;9.580;2023-04-06T13:15:43;19.80;58.60
21167;DHT22;10741;52.272;9.580;2023-04-06T13:18:10;19.50;58.00
21167;DHT22;10741;52.272;9.580;2023-04-06T13:20:36;19.70;58.60
21167;DHT22;10741;52.272;9.580;2023-04-06T13:23:02;20.00;59.50
21167;DHT22;10741;52.272;9.580;2023-04-06T13:25:28;19.90;59.20
21167;DHT22;10741;52.272;9.580;2023-04-06T13:27:55;19.80;59.20
21167;DHT22;10741;52.272;9.580;2023-04-06T13:30:21;19.90;59.20
21167;DHT22;10741;52.272;9.580;2023-04-06T13:32:47;19.60;57.30
21167;DHT22;10741;52.272;9.580;2023-04-06T13:35:13;19.20;56.30
21167;DHT22;10741;52.272;9.580;2023-04-06T13:37:39;19.30;59.40
21167;DHT22;10741;52.272;9.580;2023-04-06T13:40:05;19.90;58.70
21167;DHT22;10741;52.272;9.580;2023-04-06T13:42:31;20.10;56.50
21167;DHT22;10741;52.272;9.580;2023-04-06T13:44:58;20.10;55.40
21167;DHT22;10741;52.272;9.580;2023-04-06T13:47:23;20.30;55.60
21167;DHT22;10741;52.272;9.580;2023-04-06T13:49:52;20.40;56.50
21167;DHT22;10741;52.272;9.580;2023-04-06T13:52:18;20.00;58.00
21167;DHT22;10741;52.272;9.580;2023-04-06T13:54:45;19.40;57.20
21167;DHT22;10741;52.272;9.580;2023-04-06T13:57:11;19.60;57.50
21167;DHT22;10741;52.272;9.580;2023-04-06T13:59:38;19.30;58.10
21167;DHT22;10741;52.272;9.580;2023-04-06T14:02:08;19.20;56.70
21167;DHT22;10741;52.272;9.580;2023-04-06T14:04:34;19.20;55.90
21167;DHT22;10741;52.272;9.580;2023-04-06T14:07:01;19.40;57.10
21167;DHT22;10741;52.272;9.580;2023-04-06T14:09:28;19.80;54.70
21167;DHT22;10741;52.272;9.580;2023-04-06T14:11:54;19.60;55.90
21167;DHT22;10741;52.272;9.580;2023-04-06T14:14:20;20.10;56.20
21167;DHT22;10741;52.272;9.580;2023-04-06T14:16:47;20.40;55.70
21167;DHT22;10741;52.272;9.580;2023-04-06T14:19:14;20.20;58.50
21167;DHT22;10741;52.272;9.580;2023-04-06T14:21:47;20.30;55.50
21167;DHT22;10741;52.272;9.580;2023-04-06T14:24:14;20.60;56.60
21167;DHT22;10741;52.272;9.580;2023-04-06T14:26:41;20.60;54.30
21167;DHT22;10741;52.272;9.580;2023-04-06T14:29:08;20.40;56.40
21167;DHT22;10741;52.272;9.580;2023-04-06T14:31:35;20.30;56.80
21167;DHT22;10741;52.272;9.580;2023-04-06T14:34:01;20.40;54.00
21167;DHT22;10741;52.272;9.580;2023-04-06T14:36:28;20.80;59.40
21167;DHT22;10741;52.272;9.580;2023-04-06T14:38:57;20.70;51.20
21167;DHT22;10741;52.272;9.580;2023-04-06T14:41:24;20.50;52.60
21167;DHT22;10741;52.272;9.580;2023-04-06T14:43:53;20.30;54.70
21167;DHT22;10741;52.272;9.580;2023-04-06T14:46:18;20.80;53.30
21167;DHT22;10741;52.272;9.580;2023-04-06T14:48:45;20.70;51.60
21167;DHT22;10741;52.272;9.580;2023-04-06T14:51:11;20.80;51.70
21167;DHT22;10741;52.272;9.580;2023-04-06T14:53:37;20.40;51.40
21167;DHT22;10741;52.272;9.580;2023-04-06T14:56:03;20.40;51.10
21167;DHT22;10741;52.272;9.580;2023-04-06T14:58:29;20.10;50.90
21167;DHT22;10741;52.272;9.580;2023-04-06T15:00:56;19.90;50.90
21167;DHT22;10741;52.272;9.580;2023-04-06T15:03:27;19.40;52.60
21167;DHT22;10741;52.272;9.580;2023-04-06T15:05:54;19.10;53.50
21167;DHT22;10741;52.272;9.580;2023-04-06T15:08:20;18.80;56.10
21167;DHT22;10741;52.272;9.580;2023-04-06T15:10:47;18.80;52.00
21167;DHT22;10741;52.272;9.580;2023-04-06T15:13:13;18.70;52.60
21167;DHT22;10741;52.272;9.580;2023-04-06T15:15:40;18.40;52.50
21167;DHT22;10741;52.272;9.580;2023-04-06T15:18:06;17.90;54.20
21167;DHT22;10741;52.272;9.580;2023-04-06T15:20:32;17.80;53.80
21167;DHT22;10741;52.272;9.580;2023-04-06T15:22:58;18.10;54.70
21167;DHT22;10741;52.272;9.580;2023-04-06T15:25:24;18.10;56.00
21167;DHT22;10741;52.272;9.580;2023-04-06T15:27:50;17.80;55.00
21167;DHT22;10741;52.272;9.580;2023-04-06T15:30:16;17.50;55.80
21167;DHT22;10741;52.272;9.580;2023-04-06T15:33:00;17.30;56.10
21167;DHT22;10741;52.272;9.580;2023-04-06T15:35:27;17.50;54.80
21167;DHT22;10741;52.272;9.580;2023-04-06T15:37:54;17.50;54.90
21167;DHT22;10741;52.272;9.580;2023-04-06T15:40:21;17.10;56.90
21167;DHT22;10741;52.272;9.580;2023-04-06T15:42:47;16.70;55.60